sensor_id;sensor_type;location;lat;lon;timestamp;temperature;humidity
20479;DHT22;10398;52.490;13.434;2022-10-31T00:02:08;14.60;99.90
20479;DHT22;10398;52.490;13.434;2022-10-31T00:04:34;14.60;99.90
20479;DHT22;10398;52.490;13.434;2022-10-31T00:06:59;14.60;99.90
20479;DHT22;10398;52.490;13.434;2022-10-31T00:09:25;14.60;99.90
20479;DHT22;10398;52.490;13.434;2022-10-31T00:11:50;14.60;99.90
20479;DHT22;10398;52.490;13.434;2022-10-31T00:14:16;14.60;99.90
20479;DHT22;10398;52.490;13.434;2022-10-31T00:16:41;14.60;99.90
20479;DHT22;10398;52.490;13.434;2022-10-31T00:19:08;14.60;99.90
20479;DHT22;10398;52.490;13.434;2022-10-31T00:21:34;14.60;99.90
20479;DHT22;10398;52.490;13.434;2022-10-31T00:24:01;14.70;99.90
20479;DHT22;10398;52.490;13.434;2022-10-31T00:26:28;14.70;99.90
20479;DHT22;10398;52.490;13.434;2022-10-31T00:28:54;14.70;99.90
20479;DHT22;10398;52.490;13.434;2022-10-31T00:31:19;14.70;99.90
20479;DHT22;10398;52.490;13.434;2022-10-31T00:33:45;14.80;99.90
20479;DHT22;10398;52.490;13.434;2022-10-31T00:36:16;14.70;99.90
20479;DHT22;10398;52.490;13.434;2022-10-31T00:38:42;14.70;99.90
20479;DHT22;10398;52.490;13.434;2022-10-31T00:41:09;14.70;99.90
20479;DHT22;10398;52.490;13.434;2022-10-31T00:43:35;14.70;99.90
20479;DHT22;10398;52.490;13.434;2022-10-31T00:46:01;14.80;99.90
20479;DHT22;10398;52.490;13.434;2022-10-31T00:48:26;14.80;99.90
20479;DHT22;10398;52.490;13.434;2022-10-31T00:50:52;14.80;99.90
20479;DHT22;10398;52.490;13.434;2022-10-31T00:53:18;14.90;99.90
20479;DHT22;10398;52.490;13.434;2022-10-31T00:55:43;14.90;99.90
20479;DHT22;10398;52.490;13.434;2022-10-31T00:58:09;14.90;99.90
20479;DHT22;10398;52.490;13.434;2022-10-31T01:00:34;14.90;99.90
20479;DHT22;10398;52.490;13.434;2022-10-31T01:03:00;15.00;99.90
20479;DHT22;10398;52.490;13.434;2022-10-31T01:05:26;15.00;99.90
20479;DHT22;10398;52.490;13.434;2022-10-31T01:07:52;15.00;99.90
20479;DHT22;10398;52.490;13.434;2022-10-31T01:10:17;15.00;99.90
20479;DHT22;10398;52.490;13.434;2022-10-31T01:12:45;15.00;99.90
20479;DHT22;10398;52.490;13.434;2022-10-31T01:15:14;14.90;99.90
20479;DHT22;10398;52.490;13.434;2022-10-31T01:17:39;15.00;99.90
20479;DHT22;10398;52.490;13.434;2022-10-31T01:20:06;15.00;99.90
20479;DHT22;10398;52.490;13.434;2022-10-31T01:22:32;14.90;99.90
20479;DHT22;10398;52.490;13.434;2022-10-31T01:24:58;14.90;99.90
20479;DHT22;10398;52.490;13.434;2022-10-31T01:27:24;14.90;99.90
20479;DHT22;10398;52.490;13.434;2022-10-31T01:29:49;14.90;99.90
20479;DHT22;10398;52.490;13.434;2022-10-31T01:32:15;14.90;99.90
20479;DHT22;10398;52.490;13.434;2022-10-31T01:34:40;14.80;99.90
20479;DHT22;10398;52.490;13.434;2022-10-31T01:37:06;14.80;99.90
20479;DHT22;10398;52.490;13.434;2022-10-31T01:39:32;14.80;99.90
20479;DHT22;10398;52.490;13.434;2022-10-31T01:41:57;14.80;99.90
20479;DHT22;10398;52.490;13.434;2022-10-31T01:52:14;14.90;99.90
20479;DHT22;10398;52.490;13.434;2022-10-31T01:54:46;14.90;99.90
20479;DHT22;10398;52.490;13.434;2022-10-31T01:57:14;14.90;99.90
20479;DHT22;10398;52.490;13.434;2022-10-31T01:59:44;14.90;99.90
20479;DHT22;10398;52.490;13.434;2022-10-31T02:02:13;14.90;99.90
20479;DHT22;10398;52.490;13.434;2022-10-31T02:04:40;14.90;99.90
20479;DHT22;10398;52.490;13.434;2022-10-31T02:07:20;14.90;99.90
20479;DHT22;10398;52.490;13.434;2022-10-31T02:09:47;14.80;99.90
20479;DHT22;10398;52.490;13.434;2022-10-31T02:12:15;14.80;99.90
20479;DHT22;10398;52.490;13.434;2022-10-31T02:14:41;14.90;99.90
20479;DHT22;10398;52.490;13.434;2022-10-31T02:17:07;14.80;99.90
20479;DHT22;10398;52.490;13.434;2022-10-31T02:24:46;14.90;99.90
20479;DHT22;10398;52.490;13.434;2022-10-31T02:30:24;15.00;99.90
20479;DHT22;10398;52.490;13.434;2022-10-31T02:35:50;14.90;99.90
20479;DHT22;10398;52.490;13.434;2022-10-31T02:38:29;14.90;99.90
20479;DHT22;10398;52.490;13.434;2022-10-31T02:41:06;14.80;99.90
20479;DHT22;10398;52.490;13.434;2022-10-31T02:46:51;14.60;99.90
20479;DHT22;10398;52.490;13.434;2022-10-31T02:49:29;14.70;99.90
20479;DHT22;10398;52.490;13.434;2022-10-31T02:51:58;14.60;99.90
20479;DHT22;10398;52.490;13.434;2022-10-31T02:54:26;14.70;99.90
20479;DHT22;10398;52.490;13.434;2022-10-31T02:56:57;14.70;99.90
20479;DHT22;10398;52.490;13.434;2022-10-31T02:59:25;14.70;99.90
20479;DHT22;10398;52.490;13.434;2022-10-31T03:07:42;14.60;99.90
20479;DHT22;10398;52.490;13.434;2022-10-31T03:12:48;14.60;99.90
20479;DHT22;10398;52.490;13.434;2022-10-31T03:15:25;14.60;99.90
20479;DHT22;10398;52.490;13.434;2022-10-31T03:17:57;14.50;99.90
20479;DHT22;10398;52.490;13.434;2022-10-31T03:20:30;14.50;99.90
20479;DHT22;10398;52.490;13.434;2022-10-31T03:22:58;14.60;99.90
20479;DHT22;10398;52.490;13.434;2022-10-31T03:25:25;14.60;99.90
20479;DHT22;10398;52.490;13.434;2022-10-31T03:27:51;14.60;99.90
20479;DHT22;10398;52.490;13.434;2022-10-31T03:30:17;14.70;99.90
20479;DHT22;10398;52.490;13.434;2022-10-31T03:32:48;14.70;99.90
20479;DHT22;10398;52.490;13.434;2022-10-31T03:35:16;14.70;99.90
20479;DHT22;10398;52.490;13.434;2022-10-31T03:37:42;14.60;99.90
20479;DHT22;10398;52.490;13.434;2022-10-31T03:40:10;14.60;99.90
20479;DHT22;10398;52.490;13.434;2022-10-31T03:42:39;14.60;99.90
20479;DHT22;10398;52.490;13.434;2022-10-31T03:47:34;14.60;99.90
20479;DHT22;10398;52.490;13.434;2022-10-31T03:50:02;14.60;99.90
20479;DHT22;10398;52.490;13.434;2022-10-31T03:55:20;14.60;99.90
20479;DHT22;10398;52.490;13.434;2022-10-31T03:58:09;14.60;99.90
20479;DHT22;10398;52.490;13.434;2022-10-31T04:00:38;14.70;99.90
20479;DHT22;10398;52.490;13.434;2022-10-31T04:03:12;14.70;99.90
20479;DHT22;10398;52.490;13.434;2022-10-31T04:05:40;14.70;99.90
20479;DHT22;10398;52.490;13.434;2022-10-31T04:08:10;14.70;99.90
20479;DHT22;10398;52.490;13.434;2022-10-31T04:10:38;14.70;99.90
20479;DHT22;10398;52.490;13.434;2022-10-31T04:13:12;14.70;99.90
20479;DHT22;10398;52.490;13.434;2022-10-31T04:15:41;14.70;99.90
20479;DHT22;10398;52.490;13.434;2022-10-31T04:18:07;14.70;99.90
20479;DHT22;10398;52.490;13.434;2022-10-31T04:20:35;14.70;99.90
20479;DHT22;10398;52.490;13.434;2022-10-31T04:23:01;14.70;99.90
20479;DHT22;10398;52.490;13.434;2022-10-31T04:25:27;14.70;99.90
20479;DHT22;10398;52.490;13.434;2022-10-31T04:27:54;14.80;99.90
20479;DHT22;10398;52.490;13.434;2022-10-31T04:30:19;14.70;99.90
20479;DHT22;10398;52.490;13.434;2022-10-31T04:32:45;14.70;99.90
20479;DHT22;10398;52.490;13.434;2022-10-31T04:35:10;14.70;99.90
20479;DHT22;10398;52.490;13.434;2022-10-31T04:37:36;14.80;99.90
20479;DHT22;10398;52.490;13.434;2022-10-31T04:40:03;14.80;99.90
20479;DHT22;10398;52.490;13.434;2022-10-31T04:42:29;14.80;99.90
20479;DHT22;10398;52.490;13.434;2022-10-31T04:44:55;14.70;99.90
20479;DHT22;10398;52.490;13.434;2022-10-31T04:47:21;14.70;99.90
20479;DHT22;10398;52.490;13.434;2022-10-31T04:49:47;14.70;99.90
20479;DHT22;10398;52.490;13.434;2022-10-31T04:52:13;14.80;99.90
20479;DHT22;10398;52.490;13.434;2022-10-31T04:54:38;14.80;99.90
20479;DHT22;10398;52.490;13.434;2022-10-31T04:57:04;14.80;99.90
20479;DHT22;10398;52.490;13.434;2022-10-31T04:59:29;14.70;99.90
20479;DHT22;10398;52.490;13.434;2022-10-31T05:01:55;14.70;99.90
20479;DHT22;10398;52.490;13.434;2022-10-31T05:04:21;14.70;99.90
20479;DHT22;10398;52.490;13.434;2022-10-31T05:06:46;14.60;99.90
20479;DHT22;10398;52.490;13.434;2022-10-31T05:09:12;14.60;99.90
20479;DHT22;10398;52.490;13.434;2022-10-31T05:11:37;14.60;99.90
20479;DHT22;10398;52.490;13.434;2022-10-31T05:14:03;14.70;99.90
20479;DHT22;10398;52.490;13.434;2022-10-31T05:16:28;14.70;99.90
20479;DHT22;10398;52.490;13.434;2022-10-31T05:18:54;14.70;99.90
20479;DHT22;10398;52.490;13.434;2022-10-31T05:21:20;14.60;99.90
20479;DHT22;10398;52.490;13.434;2022-10-31T05:23:45;14.60;99.90
20479;DHT22;10398;52.490;13.434;2022-10-31T05:26:11;14.50;99.90
20479;DHT22;10398;52.490;13.434;2022-10-31T05:28:36;14.60;99.90
20479;DHT22;10398;52.490;13.434;2022-10-31T05:31:02;14.60;99.90
20479;DHT22;10398;52.490;13.434;2022-10-31T05:33:28;14.50;99.90
20479;DHT22;10398;52.490;13.434;2022-10-31T05:35:53;14.60;99.90
20479;DHT22;10398;52.490;13.434;2022-10-31T05:38:19;14.60;99.90
20479;DHT22;10398;52.490;13.434;2022-10-31T05:40:45;14.60;99.90
20479;DHT22;10398;52.490;13.434;2022-10-31T05:43:10;14.60;99.90
20479;DHT22;10398;52.490;13.434;2022-10-31T05:45:36;14.60;99.90
20479;DHT22;10398;52.490;13.434;2022-10-31T05:48:02;14.60;99.90
20479;DHT22;10398;52.490;13.434;2022-10-31T05:50:29;14.50;99.90
20479;DHT22;10398;52.490;13.434;2022-10-31T05:53:00;14.40;99.90
20479;DHT22;10398;52.490;13.434;2022-10-31T05:55:27;14.40;99.90
20479;DHT22;10398;52.490;13.434;2022-10-31T05:57:53;14.50;99.90
20479;DHT22;10398;52.490;13.434;2022-10-31T06:00:20;14.50;99.90
20479;DHT22;10398;52.490;13.434;2022-10-31T06:02:46;14.50;99.90
20479;DHT22;10398;52.490;13.434;2022-10-31T06:05:12;14.40;99.90
20479;DHT22;10398;52.490;13.434;2022-10-31T06:07:38;14.50;99.90
20479;DHT22;10398;52.490;13.434;2022-10-31T06:10:05;14.50;99.90
20479;DHT22;10398;52.490;13.434;2022-10-31T06:12:31;14.50;99.90
20479;DHT22;10398;52.490;13.434;2022-10-31T06:15:04;14.50;99.90
20479;DHT22;10398;52.490;13.434;2022-10-31T06:17:30;14.50;99.90
20479;DHT22;10398;52.490;13.434;2022-10-31T06:19:55;14.50;99.90
20479;DHT22;10398;52.490;13.434;2022-10-31T06:22:21;14.50;99.90
20479;DHT22;10398;52.490;13.434;2022-10-31T06:24:46;14.50;99.90
20479;DHT22;10398;52.490;13.434;2022-10-31T06:27:12;14.50;99.90
20479;DHT22;10398;52.490;13.434;2022-10-31T06:29:38;14.50;99.90
20479;DHT22;10398;52.490;13.434;2022-10-31T06:32:03;14.50;99.90
20479;DHT22;10398;52.490;13.434;2022-10-31T06:34:29;14.50;99.90
20479;DHT22;10398;52.490;13.434;2022-10-31T06:36:55;14.50;99.90
20479;DHT22;10398;52.490;13.434;2022-10-31T06:39:20;14.50;99.90
20479;DHT22;10398;52.490;13.434;2022-10-31T06:41:47;14.50;99.90
20479;DHT22;10398;52.490;13.434;2022-10-31T06:44:13;14.60;99.90
20479;DHT22;10398;52.490;13.434;2022-10-31T06:46:39;14.60;99.90
20479;DHT22;10398;52.490;13.434;2022-10-31T06:49:04;14.60;99.90
20479;DHT22;10398;52.490;13.434;2022-10-31T06:51:30;14.60;99.90
20479;DHT22;10398;52.490;13.434;2022-10-31T06:53:56;14.60;99.90
20479;DHT22;10398;52.490;13.434;2022-10-31T06:56:21;14.70;99.90
20479;DHT22;10398;52.490;13.434;2022-10-31T06:58:47;14.70;99.90
20479;DHT22;10398;52.490;13.434;2022-10-31T07:01:12;14.70;99.90
20479;DHT22;10398;52.490;13.434;2022-10-31T07:03:38;14.70;99.90
20479;DHT22;10398;52.490;13.434;2022-10-31T07:06:04;14.70;99.90
20479;DHT22;10398;52.490;13.434;2022-10-31T07:08:29;14.70;99.90
20479;DHT22;10398;52.490;13.434;2022-10-31T07:10:56;14.80;99.90
20479;DHT22;10398;52.490;13.434;2022-10-31T07:13:23;14.90;99.90
20479;DHT22;10398;52.490;13.434;2022-10-31T07:15:52;15.00;99.90
20479;DHT22;10398;52.490;13.434;2022-10-31T07:18:18;15.00;99.90
20479;DHT22;10398;52.490;13.434;2022-10-31T07:20:44;15.20;99.90
20479;DHT22;10398;52.490;13.434;2022-10-31T07:23:10;15.30;99.90
20479;DHT22;10398;52.490;13.434;2022-10-31T07:25:40;15.30;99.90
20479;DHT22;10398;52.490;13.434;2022-10-31T07:28:06;15.40;99.90
20479;DHT22;10398;52.490;13.434;2022-10-31T07:30:32;15.50;99.90
20479;DHT22;10398;52.490;13.434;2022-10-31T07:32:58;15.60;99.90
20479;DHT22;10398;52.490;13.434;2022-10-31T07:35:26;15.70;99.90
20479;DHT22;10398;52.490;13.434;2022-10-31T07:37:52;15.90;99.90
20479;DHT22;10398;52.490;13.434;2022-10-31T07:40:18;16.00;99.90
20479;DHT22;10398;52.490;13.434;2022-10-31T07:42:46;16.20;99.90
20479;DHT22;10398;52.490;13.434;2022-10-31T07:45:15;16.40;99.90
20479;DHT22;10398;52.490;13.434;2022-10-31T07:47:48;16.60;99.90
20479;DHT22;10398;52.490;13.434;2022-10-31T07:50:19;16.70;99.90
20479;DHT22;10398;52.490;13.434;2022-10-31T07:52:45;16.90;99.90
20479;DHT22;10398;52.490;13.434;2022-10-31T07:55:12;17.10;99.90
20479;DHT22;10398;52.490;13.434;2022-10-31T07:57:37;17.10;99.90
20479;DHT22;10398;52.490;13.434;2022-10-31T08:00:05;17.30;99.90
20479;DHT22;10398;52.490;13.434;2022-10-31T08:02:31;17.40;99.90
20479;DHT22;10398;52.490;13.434;2022-10-31T08:04:56;17.50;99.90
20479;DHT22;10398;52.490;13.434;2022-10-31T08:07:22;17.50;99.90
20479;DHT22;10398;52.490;13.434;2022-10-31T08:09:47;17.60;99.90
20479;DHT22;10398;52.490;13.434;2022-10-31T08:12:14;17.60;99.90
20479;DHT22;10398;52.490;13.434;2022-10-31T08:14:40;17.60;99.90
20479;DHT22;10398;52.490;13.434;2022-10-31T08:17:05;17.70;99.90
20479;DHT22;10398;52.490;13.434;2022-10-31T08:19:31;17.60;99.90
20479;DHT22;10398;52.490;13.434;2022-10-31T08:21:56;17.60;99.90
20479;DHT22;10398;52.490;13.434;2022-10-31T08:24:23;17.70;99.90
20479;DHT22;10398;52.490;13.434;2022-10-31T08:26:49;17.60;99.90
20479;DHT22;10398;52.490;13.434;2022-10-31T08:29:14;17.50;99.90
20479;DHT22;10398;52.490;13.434;2022-10-31T08:31:41;17.60;99.90
20479;DHT22;10398;52.490;13.434;2022-10-31T08:34:07;17.60;99.90
20479;DHT22;10398;52.490;13.434;2022-10-31T08:36:32;17.60;99.90
20479;DHT22;10398;52.490;13.434;2022-10-31T08:38:58;17.60;99.90
20479;DHT22;10398;52.490;13.434;2022-10-31T08:41:24;17.60;99.90
20479;DHT22;10398;52.490;13.434;2022-10-31T08:43:49;17.60;99.90
20479;DHT22;10398;52.490;13.434;2022-10-31T08:46:15;17.70;99.90
20479;DHT22;10398;52.490;13.434;2022-10-31T08:48:41;17.80;99.90
20479;DHT22;10398;52.490;13.434;2022-10-31T08:51:07;17.90;99.90
20479;DHT22;10398;52.490;13.434;2022-10-31T08:53:33;18.00;99.90
20479;DHT22;10398;52.490;13.434;2022-10-31T08:55:59;18.10;99.90
20479;DHT22;10398;52.490;13.434;2022-10-31T08:58:24;18.10;99.90
20479;DHT22;10398;52.490;13.434;2022-10-31T09:00:53;18.00;99.90
20479;DHT22;10398;52.490;13.434;2022-10-31T09:03:24;18.00;99.90
20479;DHT22;10398;52.490;13.434;2022-10-31T09:05:54;18.10;99.90
20479;DHT22;10398;52.490;13.434;2022-10-31T09:08:19;18.10;99.90
20479;DHT22;10398;52.490;13.434;2022-10-31T09:10:45;18.20;99.90
20479;DHT22;10398;52.490;13.434;2022-10-31T09:13:19;18.30;99.90
20479;DHT22;10398;52.490;13.434;2022-10-31T09:15:46;18.30;99.90
20479;DHT22;10398;52.490;13.434;2022-10-31T09:18:13;18.30;99.90
20479;DHT22;10398;52.490;13.434;2022-10-31T09:20:40;18.30;99.90
20479;DHT22;10398;52.490;13.434;2022-10-31T09:23:10;18.30;99.90
20479;DHT22;10398;52.490;13.434;2022-10-31T09:25:36;18.20;99.90
20479;DHT22;10398;52.490;13.434;2022-10-31T09:28:03;18.30;99.90
20479;DHT22;10398;52.490;13.434;2022-10-31T09:30:31;18.40;99.90
20479;DHT22;10398;52.490;13.434;2022-10-31T09:33:06;18.60;99.90
20479;DHT22;10398;52.490;13.434;2022-10-31T09:35:34;18.90;99.90
20479;DHT22;10398;52.490;13.434;2022-10-31T09:38:02;19.00;99.90
20479;DHT22;10398;52.490;13.434;2022-10-31T09:40:36;19.10;99.90
20479;DHT22;10398;52.490;13.434;2022-10-31T09:43:12;19.30;99.90
20479;DHT22;10398;52.490;13.434;2022-10-31T09:45:41;19.50;99.90
20479;DHT22;10398;52.490;13.434;2022-10-31T09:48:39;19.60;99.90
20479;DHT22;10398;52.490;13.434;2022-10-31T09:53:58;19.90;99.90
20479;DHT22;10398;52.490;13.434;2022-10-31T09:56:25;20.00;99.90
20479;DHT22;10398;52.490;13.434;2022-10-31T09:58:54;20.00;99.90
20479;DHT22;10398;52.490;13.434;2022-10-31T10:01:42;19.90;99.90
20479;DHT22;10398;52.490;13.434;2022-10-31T10:04:19;19.70;99.90
20479;DHT22;10398;52.490;13.434;2022-10-31T10:06:47;19.50;99.90
20479;DHT22;10398;52.490;13.434;2022-10-31T10:09:15;19.40;99.90
20479;DHT22;10398;52.490;13.434;2022-10-31T10:12:09;19.50;99.90
20479;DHT22;10398;52.490;13.434;2022-10-31T10:17:36;19.80;99.90
20479;DHT22;10398;52.490;13.434;2022-10-31T10:20:25;19.90;99.90
20479;DHT22;10398;52.490;13.434;2022-10-31T10:26:20;20.20;99.90
20479;DHT22;10398;52.490;13.434;2022-10-31T10:29:08;20.10;99.90
20479;DHT22;10398;52.490;13.434;2022-10-31T10:31:43;20.10;99.90
20479;DHT22;10398;52.490;13.434;2022-10-31T10:34:27;19.90;99.90
20479;DHT22;10398;52.490;13.434;2022-10-31T10:37:03;19.80;99.90
20479;DHT22;10398;52.490;13.434;2022-10-31T10:39:43;19.60;99.90
20479;DHT22;10398;52.490;13.434;2022-10-31T10:42:13;19.60;99.90
20479;DHT22;10398;52.490;13.434;2022-10-31T10:44:58;19.70;99.90
20479;DHT22;10398;52.490;13.434;2022-10-31T10:47:44;20.00;99.90
20479;DHT22;10398;52.490;13.434;2022-10-31T10:50:20;20.20;99.90
20479;DHT22;10398;52.490;13.434;2022-10-31T10:55:36;20.60;99.90
20479;DHT22;10398;52.490;13.434;2022-10-31T10:58:06;20.70;99.90
20479;DHT22;10398;52.490;13.434;2022-10-31T11:03:04;21.00;99.90
20479;DHT22;10398;52.490;13.434;2022-10-31T11:05:54;21.00;99.90
20479;DHT22;10398;52.490;13.434;2022-10-31T11:08:34;21.00;99.90
20479;DHT22;10398;52.490;13.434;2022-10-31T11:11:10;21.00;99.90
20479;DHT22;10398;52.490;13.434;2022-10-31T11:13:41;21.00;99.90
20479;DHT22;10398;52.490;13.434;2022-10-31T11:16:08;21.00;99.90
20479;DHT22;10398;52.490;13.434;2022-10-31T11:18:39;20.90;99.90
20479;DHT22;10398;52.490;13.434;2022-10-31T11:21:05;20.90;99.90
20479;DHT22;10398;52.490;13.434;2022-10-31T11:23:32;20.90;99.90
20479;DHT22;10398;52.490;13.434;2022-10-31T11:26:06;20.90;99.90
20479;DHT22;10398;52.490;13.434;2022-10-31T11:28:43;20.80;99.90
20479;DHT22;10398;52.490;13.434;2022-10-31T11:31:12;20.60;99.90
20479;DHT22;10398;52.490;13.434;2022-10-31T11:33:48;20.50;99.90
20479;DHT22;10398;52.490;13.434;2022-10-31T11:36:21;20.60;99.90
20479;DHT22;10398;52.490;13.434;2022-10-31T11:38:47;20.70;99.90
20479;DHT22;10398;52.490;13.434;2022-10-31T11:41:29;20.70;99.90
20479;DHT22;10398;52.490;13.434;2022-10-31T11:44:13;20.90;99.90
20479;DHT22;10398;52.490;13.434;2022-10-31T11:46:45;21.00;99.90
20479;DHT22;10398;52.490;13.434;2022-10-31T11:49:29;21.20;99.90
20479;DHT22;10398;52.490;13.434;2022-10-31T11:51:58;21.40;99.90
20479;DHT22;10398;52.490;13.434;2022-10-31T11:54:35;21.70;99.90
20479;DHT22;10398;52.490;13.434;2022-10-31T11:57:03;22.00;99.90
20479;DHT22;10398;52.490;13.434;2022-10-31T11:59:32;22.20;99.90
20479;DHT22;10398;52.490;13.434;2022-10-31T12:02:00;22.30;99.90
20479;DHT22;10398;52.490;13.434;2022-10-31T12:04:36;22.40;99.90
20479;DHT22;10398;52.490;13.434;2022-10-31T12:07:03;22.40;99.90
20479;DHT22;10398;52.490;13.434;2022-10-31T12:09:30;22.50;99.90
20479;DHT22;10398;52.490;13.434;2022-10-31T12:12:21;22.60;99.90
20479;DHT22;10398;52.490;13.434;2022-10-31T12:17:40;22.90;99.90
20479;DHT22;10398;52.490;13.434;2022-10-31T12:20:37;23.30;99.90
20479;DHT22;10398;52.490;13.434;2022-10-31T12:26:08;23.70;99.90
20479;DHT22;10398;52.490;13.434;2022-10-31T12:29:02;23.90;99.90
20479;DHT22;10398;52.490;13.434;2022-10-31T12:32:00;24.00;99.90
20479;DHT22;10398;52.490;13.434;2022-10-31T12:34:45;24.00;99.90
20479;DHT22;10398;52.490;13.434;2022-10-31T12:42:38;24.30;99.90
20479;DHT22;10398;52.490;13.434;2022-10-31T12:48:10;24.30;99.90
20479;DHT22;10398;52.490;13.434;2022-10-31T12:56:31;24.20;99.90
20479;DHT22;10398;52.490;13.434;2022-10-31T12:59:04;24.10;99.90
20479;DHT22;10398;52.490;13.434;2022-10-31T13:01:44;23.90;99.90
20479;DHT22;10398;52.490;13.434;2022-10-31T13:06:50;23.50;99.90
20479;DHT22;10398;52.490;13.434;2022-10-31T13:09:23;23.30;99.90
20479;DHT22;10398;52.490;13.434;2022-10-31T13:11:56;23.00;99.90
20479;DHT22;10398;52.490;13.434;2022-10-31T13:14:27;22.80;99.90
20479;DHT22;10398;52.490;13.434;2022-10-31T13:16:55;22.70;99.90
20479;DHT22;10398;52.490;13.434;2022-10-31T13:19:36;22.60;99.90
20479;DHT22;10398;52.490;13.434;2022-10-31T13:22:12;22.50;99.90
20479;DHT22;10398;52.490;13.434;2022-10-31T13:24:46;22.40;99.90
20479;DHT22;10398;52.490;13.434;2022-10-31T13:27:25;22.30;99.90
20479;DHT22;10398;52.490;13.434;2022-10-31T13:30:20;22.40;99.90
20479;DHT22;10398;52.490;13.434;2022-10-31T13:33:08;22.40;99.90
20479;DHT22;10398;52.490;13.434;2022-10-31T13:36:08;22.30;99.90
20479;DHT22;10398;52.490;13.434;2022-10-31T13:46:36;21.70;99.90
20479;DHT22;10398;52.490;13.434;2022-10-31T13:49:02;21.50;99.90
20479;DHT22;10398;52.490;13.434;2022-10-31T13:51:30;21.50;99.90
20479;DHT22;10398;52.490;13.434;2022-10-31T13:53:57;21.50;99.90
20479;DHT22;10398;52.490;13.434;2022-10-31T13:56:29;21.40;99.90
20479;DHT22;10398;52.490;13.434;2022-10-31T14:01:33;21.20;99.90
20479;DHT22;10398;52.490;13.434;2022-10-31T14:09:21;21.00;99.90
20479;DHT22;10398;52.490;13.434;2022-10-31T14:11:49;21.00;99.90
20479;DHT22;10398;52.490;13.434;2022-10-31T14:14:15;21.00;99.90
20479;DHT22;10398;52.490;13.434;2022-10-31T14:16:44;20.90;99.90
20479;DHT22;10398;52.490;13.434;2022-10-31T14:19:18;20.80;99.90
20479;DHT22;10398;52.490;13.434;2022-10-31T14:21:49;20.70;99.90
20479;DHT22;10398;52.490;13.434;2022-10-31T14:24:31;20.60;99.90
20479;DHT22;10398;52.490;13.434;2022-10-31T14:29:29;20.40;99.90
20479;DHT22;10398;52.490;13.434;2022-10-31T14:32:25;20.40;99.90
20479;DHT22;10398;52.490;13.434;2022-10-31T14:34:58;20.30;99.90
20479;DHT22;10398;52.490;13.434;2022-10-31T14:43:12;20.10;99.90
20479;DHT22;10398;52.490;13.434;2022-10-31T14:51:01;20.20;99.90
20479;DHT22;10398;52.490;13.434;2022-10-31T14:53:34;20.30;99.90
20479;DHT22;10398;52.490;13.434;2022-10-31T14:56:00;20.30;99.90
20479;DHT22;10398;52.490;13.434;2022-10-31T14:58:34;20.30;99.90
20479;DHT22;10398;52.490;13.434;2022-10-31T15:01:01;20.30;99.90
20479;DHT22;10398;52.490;13.434;2022-10-31T15:03:44;20.40;99.90
20479;DHT22;10398;52.490;13.434;2022-10-31T15:06:13;20.40;99.90
20479;DHT22;10398;52.490;13.434;2022-10-31T15:08:47;20.30;99.90
20479;DHT22;10398;52.490;13.434;2022-10-31T15:11:16;20.30;99.90
20479;DHT22;10398;52.490;13.434;2022-10-31T15:16:11;20.20;99.90
20479;DHT22;10398;52.490;13.434;2022-10-31T15:18:44;20.20;99.90
20479;DHT22;10398;52.490;13.434;2022-10-31T15:21:15;20.10;99.90
20479;DHT22;10398;52.490;13.434;2022-10-31T15:23:42;20.10;99.90
20479;DHT22;10398;52.490;13.434;2022-10-31T15:26:16;20.10;99.90
20479;DHT22;10398;52.490;13.434;2022-10-31T15:28:42;20.10;99.90
20479;DHT22;10398;52.490;13.434;2022-10-31T15:31:17;19.90;99.90
20479;DHT22;10398;52.490;13.434;2022-10-31T15:33:47;19.80;99.90
20479;DHT22;10398;52.490;13.434;2022-10-31T15:36:25;19.80;99.90
20479;DHT22;10398;52.490;13.434;2022-10-31T15:38:52;19.70;99.90
20479;DHT22;10398;52.490;13.434;2022-10-31T15:41:31;19.60;99.90
20479;DHT22;10398;52.490;13.434;2022-10-31T15:44:16;19.50;99.90
20479;DHT22;10398;52.490;13.434;2022-10-31T15:46:58;19.40;99.90
20479;DHT22;10398;52.490;13.434;2022-10-31T15:49:37;19.30;99.90
20479;DHT22;10398;52.490;13.434;2022-10-31T15:52:29;19.10;99.90
20479;DHT22;10398;52.490;13.434;2022-10-31T15:55:02;19.10;99.90
20479;DHT22;10398;52.490;13.434;2022-10-31T15:57:29;19.00;99.90
20479;DHT22;10398;52.490;13.434;2022-10-31T15:59:55;18.90;99.90
20479;DHT22;10398;52.490;13.434;2022-10-31T16:02:23;18.90;99.90
20479;DHT22;10398;52.490;13.434;2022-10-31T16:07:18;18.80;99.90
20479;DHT22;10398;52.490;13.434;2022-10-31T16:09:56;18.70;99.90
20479;DHT22;10398;52.490;13.434;2022-10-31T16:12:24;18.70;99.90
20479;DHT22;10398;52.490;13.434;2022-10-31T16:14:54;18.70;99.90
20479;DHT22;10398;52.490;13.434;2022-10-31T16:17:22;18.60;99.90
20479;DHT22;10398;52.490;13.434;2022-10-31T16:22:36;18.50;99.90
20479;DHT22;10398;52.490;13.434;2022-10-31T16:25:11;18.30;99.90
20479;DHT22;10398;52.490;13.434;2022-10-31T16:27:38;18.30;99.90
20479;DHT22;10398;52.490;13.434;2022-10-31T16:33:02;18.00;99.90
20479;DHT22;10398;52.490;13.434;2022-10-31T16:35:33;17.90;99.90
20479;DHT22;10398;52.490;13.434;2022-10-31T16:38:00;17.90;99.90
20479;DHT22;10398;52.490;13.434;2022-10-31T16:40:25;17.90;99.90
20479;DHT22;10398;52.490;13.434;2022-10-31T16:42:51;17.90;99.90
20479;DHT22;10398;52.490;13.434;2022-10-31T16:45:22;17.90;99.90
20479;DHT22;10398;52.490;13.434;2022-10-31T16:47:49;17.90;99.90
20479;DHT22;10398;52.490;13.434;2022-10-31T16:50:21;17.90;99.90
20479;DHT22;10398;52.490;13.434;2022-10-31T16:52:47;17.90;99.90
20479;DHT22;10398;52.490;13.434;2022-10-31T16:55:14;17.90;99.90
20479;DHT22;10398;52.490;13.434;2022-10-31T16:57:48;17.80;99.90
20479;DHT22;10398;52.490;13.434;2022-10-31T17:00:20;17.70;99.90
20479;DHT22;10398;52.490;13.434;2022-10-31T17:02:48;17.70;99.90
20479;DHT22;10398;52.490;13.434;2022-10-31T17:05:17;17.80;99.90
20479;DHT22;10398;52.490;13.434;2022-10-31T17:07:43;17.90;99.90
20479;DHT22;10398;52.490;13.434;2022-10-31T17:10:09;18.00;99.90
20479;DHT22;10398;52.490;13.434;2022-10-31T17:12:36;18.00;99.90
20479;DHT22;10398;52.490;13.434;2022-10-31T17:15:03;18.10;99.90
20479;DHT22;10398;52.490;13.434;2022-10-31T17:17:30;18.10;99.90
20479;DHT22;10398;52.490;13.434;2022-10-31T17:19:55;18.20;99.90
20479;DHT22;10398;52.490;13.434;2022-10-31T17:22:21;18.10;99.90
20479;DHT22;10398;52.490;13.434;2022-10-31T17:24:46;18.00;99.90